Airfield :
LOGIN :

Register | Disclaimer

   EN    FR    IT 

 










Legend :    VFR   Marginal VFR   IFR   Intensive IFR   Very Intensive IFR
Visi :
Ceiling :
>= 8 km
>= 3000ft
5 to 8 km
1000 to 3000 ft
1500m to 5 km
500 to 1000 ft
800 to 1500m
200 to 500 ft
< 800m
< 200 ft
Symbols :   Thunderstorms  Fog  Heavy snow  Heavy precipitations  Wind > 20 kt
SIGMETs :     Misc.  Thunderstorms  Icing  Turbulence  Mountain Waves  Volcanic Ashes







- Airport Elevation : 659 ft
- IATA code : LGG


EBLG - Liège

CURRENT METAR :
  • 232320Z 16009KT CAVOK 16/07 Q0997 NOSIG

EXPIRED METARs :
  • 232250Z 16006KT 130V190 CAVOK 16/08 Q0997 NOSIG
  • 232220Z 17007KT 130V190 CAVOK 17/08 Q0997 NOSIG
  • 232150Z 16007KT CAVOK 17/08 Q0997 NOSIG
  • 232120Z 17007KT 140V200 CAVOK 17/08 Q0997 NOSIG
  • 232050Z 17005KT CAVOK 17/07 Q0997 NOSIG

TAF TAF EBLG
Valid from the 24 at 00:00 until the 25 at 06:00 UTC


232310Z 2400/2506 17007KT CAVOK
PROB30
TEMPO 2408/2413 18015G25KT
TEMPO 2413/2421 18018G30KT 4000 SHRA
PROB40
TEMPO 2414/2419 2000 TSRA
PROB40
TEMPO 2505/2506 16018G30KT
No reported NOTAMs for that airfield.



MET'MAP, your aeronautical weather chart ! - Copyright ORBIFLY December 2007 - Disclaimer

ORBIFLY MET'MAP TEAM :

Programming & Development : Alexandra Zaïnal
Concept & Development : Baudouin d'Aumeries
Co-Development & Prog : Marc-Olivier Méhu
Technical & hardware support : Manuel Goepfert

Contact : metmap@orbifly.com




SOURCES & CREDITS :

   NOAA